createdAt,value
2023-09-13T00:02:26.770Z,16.70
2023-09-13T00:04:55.902Z,12.68
2023-09-13T00:07:23.197Z,13.70
2023-09-13T00:09:50.311Z,16.00
2023-09-13T00:12:17.401Z,14.13
2023-09-13T00:14:44.414Z,12.25
2023-09-13T00:17:11.480Z,14.02
2023-09-13T00:19:38.998Z,13.63
2023-09-13T00:22:06.495Z,16.08
2023-09-13T00:24:33.610Z,13.27
2023-09-13T00:27:00.640Z,14.93
2023-09-13T00:29:31.410Z,12.80
2023-09-13T00:31:58.708Z,16.30
2023-09-13T00:34:25.946Z,15.27
2023-09-13T00:36:53.177Z,15.40
2023-09-13T00:39:20.334Z,11.90
2023-09-13T00:41:47.503Z,10.32
2023-09-13T00:44:14.751Z,13.23
2023-09-13T00:46:43.226Z,14.02
2023-09-13T00:49:11.055Z,15.13
2023-09-13T00:51:38.361Z,13.25
2023-09-13T00:54:06.234Z,10.57
2023-09-13T00:56:34.280Z,13.55
2023-09-13T00:59:03.252Z,14.85
2023-09-13T01:01:31.453Z,12.38
2023-09-13T01:03:59.504Z,12.77
2023-09-13T01:06:26.940Z,12.95
2023-09-13T01:08:54.968Z,12.68
2023-09-13T01:11:22.227Z,11.05
2023-09-13T01:13:49.380Z,15.02
2023-09-13T01:16:29.230Z,14.95
2023-09-13T01:19:40.672Z,15.70
2023-09-13T01:22:34.934Z,12.65
2023-09-13T01:25:10.991Z,10.63
2023-09-13T01:28:25.397Z,12.20
2023-09-13T01:30:53.042Z,8.63
2023-09-13T01:33:20.382Z,12.82
2023-09-13T01:35:47.621Z,10.55
2023-09-13T01:38:14.742Z,10.43
2023-09-13T01:40:44.545Z,8.88
2023-09-13T01:43:13.219Z,12.05
2023-09-13T01:45:40.934Z,10.00
2023-09-13T01:48:10.878Z,12.00
2023-09-13T01:50:39.749Z,9.15
2023-09-13T01:53:06.918Z,9.32
2023-09-13T01:55:37.138Z,7.57
2023-09-13T01:58:04.535Z,9.02
2023-09-13T02:00:31.980Z,8.63
2023-09-13T02:02:59.192Z,12.65
2023-09-13T02:05:27.033Z,10.25
2023-09-13T02:07:54.213Z,8.77
2023-09-13T02:10:21.424Z,11.30
2023-09-13T02:12:48.788Z,10.55
2023-09-13T02:15:16.012Z,10.20
2023-09-13T02:17:43.155Z,11.65
2023-09-13T02:20:13.462Z,9.68
2023-09-13T02:22:40.618Z,10.45
2023-09-13T02:25:08.649Z,6.03
2023-09-13T02:27:35.824Z,12.93
2023-09-13T02:30:07.187Z,10.20
2023-09-13T02:32:34.910Z,9.35
2023-09-13T02:35:02.519Z,7.85
2023-09-13T02:37:29.980Z,7.82
2023-09-13T02:39:59.317Z,8.00
2023-09-13T02:42:28.164Z,11.27
2023-09-13T02:44:55.614Z,7.50
2023-09-13T02:47:22.904Z,11.32
2023-09-13T02:49:52.410Z,7.35
2023-09-13T02:52:31.955Z,8.98
2023-09-13T02:55:01.930Z,7.47
2023-09-13T02:57:29.243Z,6.32
2023-09-13T02:59:56.363Z,8.07
2023-09-13T03:02:23.630Z,9.82
2023-09-13T03:04:54.921Z,10.57
2023-09-13T03:07:24.018Z,9.27
2023-09-13T03:09:58.740Z,8.43
2023-09-13T03:12:26.911Z,11.07
2023-09-13T03:14:57.377Z,7.95
2023-09-13T03:17:24.837Z,9.43
2023-09-13T03:19:52.166Z,11.10
2023-09-13T03:22:20.767Z,7.65
2023-09-13T03:24:48.252Z,8.40
2023-09-13T03:27:16.377Z,8.27
2023-09-13T03:29:43.547Z,9.55
2023-09-13T03:32:11.504Z,7.03
2023-09-13T03:34:39.093Z,9.23
2023-09-13T03:37:07.745Z,8.00
2023-09-13T03:39:35.630Z,11.18
2023-09-13T03:42:03.916Z,8.38
2023-09-13T03:44:31.140Z,9.18
2023-09-13T03:46:58.456Z,8.80
2023-09-13T03:49:25.836Z,7.25
2023-09-13T03:51:53.183Z,8.00
2023-09-13T03:54:20.938Z,10.13
2023-09-13T03:56:48.388Z,6.05
2023-09-13T03:59:15.554Z,8.20
2023-09-13T04:01:42.835Z,10.07
2023-09-13T04:04:10.126Z,8.25
2023-09-13T04:06:37.485Z,9.10
2023-09-13T04:09:04.820Z,9.07
2023-09-13T04:11:32.014Z,7.63
2023-09-13T04:13:59.101Z,9.38
2023-09-13T04:16:26.283Z,8.18
2023-09-13T04:18:53.345Z,6.75
2023-09-13T04:21:22.226Z,9.90
2023-09-13T04:23:49.383Z,9.98
2023-09-13T04:26:22.625Z,10.25
2023-09-13T04:28:49.869Z,8.32
2023-09-13T04:31:17.691Z,9.57
2023-09-13T04:33:55.062Z,13.10
2023-09-13T04:36:26.499Z,10.63
2023-09-13T04:38:57.082Z,9.55
2023-09-13T04:41:24.630Z,9.00
2023-09-13T04:43:52.067Z,8.88
2023-09-13T04:46:20.639Z,11.68
2023-09-13T04:48:47.951Z,9.65
2023-09-13T04:51:15.100Z,9.98
2023-09-13T04:53:42.566Z,10.80
2023-09-13T04:56:10.133Z,9.02
2023-09-13T04:58:43.873Z,11.05
2023-09-13T05:01:11.422Z,10.48
2023-09-13T05:03:38.764Z,12.23
2023-09-13T05:06:08.652Z,10.95
2023-09-13T05:08:37.805Z,9.05
2023-09-13T05:11:05.016Z,11.55
2023-09-13T05:13:35.296Z,11.30
2023-09-13T05:16:02.505Z,9.77
2023-09-13T05:18:29.674Z,10.23
2023-09-13T05:20:56.851Z,11.55
2023-09-13T05:23:24.073Z,10.88
2023-09-13T05:25:51.451Z,10.85
2023-09-13T05:28:18.549Z,11.68
2023-09-13T05:30:50.369Z,11.13
2023-09-13T05:33:17.600Z,8.98
2023-09-13T05:35:44.800Z,9.23
2023-09-13T05:38:11.874Z,7.93
2023-09-13T05:40:39.004Z,7.97
2023-09-13T05:43:06.303Z,10.27
2023-09-13T05:45:33.436Z,7.20
2023-09-13T05:48:01.255Z,8.30
2023-09-13T05:50:28.380Z,13.45
2023-09-13T05:52:56.252Z,8.18
2023-09-13T05:55:23.658Z,7.65
2023-09-13T05:57:52.313Z,11.48
2023-09-13T06:00:20.265Z,10.43
2023-09-13T06:02:47.452Z,5.25
2023-09-13T06:05:14.562Z,5.78
2023-09-13T06:07:41.600Z,6.55
2023-09-13T06:10:09.294Z,6.00
2023-09-13T06:12:36.465Z,5.43
2023-09-13T06:15:03.804Z,5.20
2023-09-13T06:17:30.961Z,8.27
2023-09-13T06:19:58.649Z,4.68
2023-09-13T06:22:25.814Z,6.30
2023-09-13T06:24:52.991Z,6.82
2023-09-13T06:27:20.230Z,10.13
2023-09-13T06:29:47.973Z,9.27
2023-09-13T06:32:33.736Z,6.93
2023-09-13T06:35:02.346Z,8.75
2023-09-13T06:37:30.616Z,8.38
2023-09-13T06:39:58.307Z,8.70
2023-09-13T06:42:28.955Z,7.72
2023-09-13T06:45:17.798Z,6.88
2023-09-13T06:47:44.911Z,6.38
2023-09-13T06:50:15.110Z,6.30
2023-09-13T06:53:00.592Z,7.13
2023-09-13T06:55:35.118Z,9.20
2023-09-13T06:58:10.801Z,7.65
2023-09-13T07:00:57.476Z,7.88
2023-09-13T07:03:41.112Z,6.65
2023-09-13T07:06:15.327Z,9.25
2023-09-13T07:08:42.879Z,8.10
2023-09-13T07:11:10.430Z,6.40
2023-09-13T07:13:37.597Z,8.57
2023-09-13T07:16:04.978Z,11.45
2023-09-13T07:18:32.076Z,8.90
2023-09-13T07:20:59.364Z,9.00
2023-09-13T07:23:27.728Z,7.15
2023-09-13T07:25:54.844Z,15.25
2023-09-13T07:28:22.029Z,10.10
2023-09-13T07:30:49.137Z,9.43
2023-09-13T07:33:16.292Z,9.50
2023-09-13T07:35:43.366Z,11.55
2023-09-13T07:38:11.623Z,12.45
2023-09-13T07:40:41.915Z,11.32
2023-09-13T07:43:09.521Z,10.05
2023-09-13T07:45:36.740Z,13.70
2023-09-13T07:48:04.385Z,11.82
2023-09-13T07:50:41.782Z,12.52
2023-09-13T07:53:13.783Z,11.68
2023-09-13T07:55:41.870Z,12.20
2023-09-13T07:58:10.093Z,8.77
2023-09-13T08:00:37.524Z,13.30
2023-09-13T08:03:05.777Z,16.80
2023-09-13T08:05:33.215Z,11.18
2023-09-13T08:08:00.818Z,11.05
2023-09-13T08:10:28.071Z,10.85
2023-09-13T08:12:55.724Z,9.77
2023-09-13T08:15:30.857Z,10.07
2023-09-13T08:18:05.980Z,13.02
2023-09-13T08:20:33.167Z,13.38
2023-09-13T08:23:00.424Z,9.85
2023-09-13T08:25:28.340Z,10.80
2023-09-13T08:27:55.711Z,11.55
2023-09-13T08:30:22.785Z,10.95
2023-09-13T08:32:50.602Z,10.30
2023-09-13T08:35:17.864Z,11.23
2023-09-13T08:37:45.095Z,11.95
2023-09-13T08:40:12.930Z,12.15
2023-09-13T08:42:44.580Z,13.40
2023-09-13T08:45:13.933Z,12.00
2023-09-13T08:47:57.149Z,8.75
2023-09-13T08:50:29.729Z,12.07
2023-09-13T08:53:02.351Z,10.13
2023-09-13T08:55:32.401Z,9.75
2023-09-13T08:58:01.219Z,10.20
2023-09-13T09:00:33.089Z,7.90
2023-09-13T09:03:04.115Z,8.40
2023-09-13T09:05:33.242Z,9.38
2023-09-13T09:08:02.674Z,9.00
2023-09-13T09:10:31.813Z,8.82
2023-09-13T09:13:01.052Z,8.40
2023-09-13T09:15:29.200Z,8.18
2023-09-13T09:18:01.052Z,6.68
2023-09-13T09:20:29.469Z,7.45
2023-09-13T09:23:00.002Z,7.85
2023-09-13T09:25:30.085Z,7.63
2023-09-13T09:27:57.138Z,6.65
2023-09-13T09:30:35.709Z,11.43
2023-09-13T09:33:05.723Z,6.03
2023-09-13T09:35:35.977Z,7.30
2023-09-13T09:38:08.094Z,9.05
2023-09-13T09:40:39.443Z,8.98
2023-09-13T09:43:06.802Z,7.85
2023-09-13T09:45:33.941Z,6.45
2023-09-13T09:48:01.930Z,6.85
2023-09-13T09:50:32.910Z,8.07
2023-09-13T09:53:01.084Z,8.73
2023-09-13T09:55:28.630Z,8.07
2023-09-13T09:57:57.289Z,7.40
2023-09-13T10:00:24.531Z,7.55
2023-09-13T10:02:51.954Z,8.20
2023-09-13T10:05:20.043Z,6.95
2023-09-13T10:07:55.879Z,9.77
2023-09-13T10:10:39.542Z,9.65
2023-09-13T10:13:07.427Z,8.95
2023-09-13T10:15:34.754Z,9.40
2023-09-13T10:18:04.379Z,6.72
2023-09-13T10:20:36.182Z,7.05
2023-09-13T10:23:10.571Z,11.18
2023-09-13T10:25:39.167Z,8.05
2023-09-13T10:28:08.674Z,6.78
2023-09-13T10:30:37.359Z,6.38
2023-09-13T10:33:07.899Z,5.30
2023-09-13T10:35:41.640Z,5.18
2023-09-13T10:38:19.138Z,5.95
2023-09-13T10:41:00.849Z,8.02
2023-09-13T10:43:28.846Z,6.70
2023-09-13T10:45:56.670Z,8.25
2023-09-13T10:48:24.751Z,8.82
2023-09-13T10:50:53.166Z,8.70
2023-09-13T10:53:21.392Z,8.73
2023-09-13T10:55:50.553Z,6.63
2023-09-13T10:58:22.186Z,8.52
2023-09-13T11:00:51.891Z,8.95
2023-09-13T11:03:19.865Z,8.82
2023-09-13T11:05:52.232Z,7.47
2023-09-13T11:08:46.284Z,8.85
2023-09-13T11:11:19.086Z,9.43
2023-09-13T11:13:48.488Z,9.48
2023-09-13T11:16:18.004Z,10.65
2023-09-13T11:18:54.171Z,6.35
2023-09-13T11:21:30.182Z,8.18
2023-09-13T11:24:04.179Z,7.03
2023-09-13T11:26:51.136Z,8.52
2023-09-13T11:29:24.346Z,6.57
2023-09-13T11:32:06.049Z,7.45
2023-09-13T11:34:40.467Z,7.85
2023-09-13T11:37:09.250Z,6.55
2023-09-13T11:39:36.395Z,6.10
2023-09-13T11:42:06.920Z,6.00
2023-09-13T11:44:34.576Z,6.32
2023-09-13T11:47:03.304Z,7.88
2023-09-13T11:49:37.168Z,7.82
2023-09-13T11:52:25.128Z,6.60
2023-09-13T12:00:25.536Z,7.00
2023-09-13T12:02:55.099Z,6.03
2023-09-13T12:05:35.986Z,6.38
2023-09-13T12:08:26.747Z,6.55
2023-09-13T12:11:00.608Z,4.80
2023-09-13T12:14:06.881Z,6.93
2023-09-13T12:16:40.887Z,6.43
2023-09-13T12:19:10.165Z,5.32
2023-09-13T12:21:37.446Z,5.78
2023-09-13T12:24:04.851Z,5.07
2023-09-13T12:26:33.121Z,5.85
2023-09-13T12:29:00.358Z,5.05
2023-09-13T12:31:27.588Z,6.18
2023-09-13T12:33:55.192Z,5.20
2023-09-13T12:36:22.692Z,5.65
2023-09-13T12:38:50.726Z,6.32
2023-09-13T12:41:29.560Z,3.55
2023-09-13T12:43:58.089Z,6.32
2023-09-13T12:46:28.474Z,6.28
2023-09-13T12:48:58.187Z,6.97
2023-09-13T12:51:29.782Z,6.53
2023-09-13T12:53:57.968Z,7.30
2023-09-13T12:56:25.109Z,5.18
2023-09-13T12:58:57.122Z,5.15
2023-09-13T13:01:25.459Z,5.32
2023-09-13T13:04:12.477Z,4.78
2023-09-13T13:07:00.808Z,3.90
2023-09-13T13:09:28.324Z,6.93
2023-09-13T13:11:56.756Z,4.35
2023-09-13T13:14:25.140Z,5.45
2023-09-13T13:16:57.633Z,6.30
2023-09-13T13:22:11.943Z,6.00
2023-09-13T13:24:40.757Z,6.43
2023-09-13T13:27:08.406Z,6.90
2023-09-13T13:29:37.020Z,7.38
2023-09-13T13:32:05.432Z,6.32
2023-09-13T13:34:32.812Z,7.05
2023-09-13T13:36:59.901Z,7.10
2023-09-13T13:39:28.159Z,6.78
2023-09-13T13:41:55.559Z,6.75
2023-09-13T13:44:22.988Z,4.97
2023-09-13T13:46:50.664Z,7.70
2023-09-13T13:49:19.433Z,8.35
2023-09-13T13:51:50.815Z,8.00
2023-09-13T13:54:19.485Z,7.47
2023-09-13T13:56:47.543Z,8.20
2023-09-13T13:59:15.945Z,7.72
2023-09-13T14:01:44.734Z,5.72
2023-09-13T14:04:12.256Z,8.43
2023-09-13T14:06:46.027Z,7.32
2023-09-13T14:09:16.993Z,9.30
2023-09-13T14:11:44.246Z,8.88
2023-09-13T14:14:14.429Z,9.05
2023-09-13T14:16:41.917Z,8.77
2023-09-13T14:19:09.425Z,9.20
2023-09-13T14:21:36.826Z,6.82
2023-09-13T14:24:05.866Z,8.30
2023-09-13T14:26:33.322Z,11.18
2023-09-13T14:29:00.665Z,8.75
2023-09-13T14:31:27.758Z,8.32
2023-09-13T14:33:57.020Z,7.65
2023-09-13T14:36:24.407Z,11.38
2023-09-13T14:38:52.543Z,10.52
2023-09-13T14:41:19.651Z,6.78
2023-09-13T14:43:46.972Z,10.45
2023-09-13T14:46:14.455Z,9.02
2023-09-13T14:48:41.749Z,10.50
2023-09-13T14:51:09.056Z,11.05
2023-09-13T14:53:37.400Z,10.68
2023-09-13T14:56:04.605Z,8.25
2023-09-13T14:58:31.578Z,8.93
2023-09-13T15:00:58.740Z,11.35
2023-09-13T15:03:26.178Z,11.32
2023-09-13T15:05:53.459Z,8.73
2023-09-13T15:08:20.527Z,11.63
2023-09-13T15:10:47.848Z,8.15
2023-09-13T15:13:14.895Z,8.00
2023-09-13T15:15:46.309Z,9.85
2023-09-13T15:18:13.778Z,7.85
2023-09-13T15:20:41.030Z,12.65
2023-09-13T15:23:08.105Z,10.32
2023-09-13T15:25:36.068Z,11.98
2023-09-13T15:28:04.002Z,5.72
2023-09-13T15:30:31.114Z,7.70
2023-09-13T15:32:58.383Z,9.20
2023-09-13T15:35:25.605Z,8.45
2023-09-13T15:37:52.766Z,6.82
2023-09-13T15:40:19.901Z,11.48
2023-09-13T15:42:47.592Z,7.63
2023-09-13T15:45:15.052Z,10.85
2023-09-13T15:47:42.368Z,10.00
2023-09-13T15:50:10.242Z,9.05
2023-09-13T15:52:37.350Z,8.70
2023-09-13T15:55:04.938Z,13.20
2023-09-13T15:57:32.188Z,11.23
2023-09-13T15:59:59.749Z,6.75
2023-09-13T16:02:26.792Z,8.50
2023-09-13T16:04:53.955Z,11.13
2023-09-13T16:07:22.470Z,8.80
2023-09-13T16:09:49.568Z,8.02
2023-09-13T16:12:16.638Z,8.80
2023-09-13T16:14:43.787Z,8.90
2023-09-13T16:17:10.783Z,7.43
2023-09-13T16:19:37.956Z,6.50
2023-09-13T16:22:05.783Z,9.73
2023-09-13T16:24:32.993Z,7.60
2023-09-13T16:27:00.291Z,9.30
2023-09-13T16:29:27.845Z,7.43
2023-09-13T16:31:55.078Z,6.95
2023-09-13T16:34:22.553Z,9.35
2023-09-13T16:36:50.005Z,9.50
2023-09-13T16:39:17.619Z,8.40
2023-09-13T16:41:44.769Z,10.55
2023-09-13T16:44:12.304Z,7.65
2023-09-13T16:46:40.286Z,8.07
2023-09-13T16:49:08.330Z,10.68
2023-09-13T16:51:35.706Z,6.63
2023-09-13T16:54:05.490Z,8.02
2023-09-13T16:56:32.537Z,9.10
2023-09-13T16:58:59.588Z,8.05
2023-09-13T17:01:26.746Z,6.78
2023-09-13T17:03:53.944Z,7.10
2023-09-13T17:06:21.208Z,8.27
2023-09-13T17:08:49.793Z,11.75
2023-09-13T17:11:19.333Z,7.18
2023-09-13T17:13:48.454Z,9.77
2023-09-13T17:16:18.787Z,8.35
2023-09-13T17:18:47.655Z,10.20
2023-09-13T17:21:15.008Z,8.40
2023-09-13T17:23:42.336Z,9.80
2023-09-13T17:26:09.501Z,10.40
2023-09-13T17:28:36.528Z,8.75
2023-09-13T17:31:03.826Z,9.82
2023-09-13T17:33:31.054Z,8.77
2023-09-13T17:35:58.831Z,6.72
2023-09-13T17:38:26.022Z,9.63
2023-09-13T17:40:53.031Z,9.20
2023-09-13T17:43:22.309Z,9.40
2023-09-13T17:45:50.187Z,6.95
2023-09-13T17:48:18.533Z,6.28
2023-09-13T17:50:45.553Z,10.52
2023-09-13T17:53:14.241Z,8.55
2023-09-13T17:55:41.488Z,8.50
2023-09-13T17:58:08.615Z,8.52
2023-09-13T18:00:35.677Z,8.65
2023-09-13T18:03:03.842Z,10.13
2023-09-13T18:05:31.632Z,7.95
2023-09-13T18:07:59.610Z,11.07
2023-09-13T18:10:27.594Z,8.75
2023-09-13T18:12:55.315Z,7.43
2023-09-13T18:15:22.763Z,7.53
2023-09-13T18:17:55.025Z,6.60
2023-09-13T18:20:23.700Z,7.68
2023-09-13T18:22:50.974Z,8.90
2023-09-13T18:25:18.232Z,7.72
2023-09-13T18:27:45.800Z,8.35
2023-09-13T18:30:13.778Z,9.60
2023-09-13T18:32:40.869Z,8.00
2023-09-13T18:35:09.605Z,5.30
2023-09-13T18:37:36.770Z,7.75
2023-09-13T18:40:07.282Z,9.13
2023-09-13T18:42:35.209Z,9.40
2023-09-13T18:45:02.680Z,7.90
2023-09-13T18:47:29.999Z,9.70
2023-09-13T18:49:57.505Z,6.97
2023-09-13T18:52:24.620Z,8.00
2023-09-13T18:54:51.765Z,10.75
2023-09-13T18:57:19.447Z,8.98
2023-09-13T18:59:46.608Z,9.50
2023-09-13T19:02:13.863Z,6.28
2023-09-13T19:04:41.034Z,8.63
2023-09-13T19:07:11.110Z,8.10
2023-09-13T19:09:39.786Z,8.55
2023-09-13T19:12:07.983Z,9.07
2023-09-13T19:14:35.312Z,11.80
2023-09-13T19:17:03.664Z,10.50
2023-09-13T19:19:33.159Z,6.43
2023-09-13T19:22:00.606Z,7.57
2023-09-13T19:24:30.041Z,7.93
2023-09-13T19:27:04.064Z,9.48
2023-09-13T19:29:31.222Z,9.85
2023-09-13T19:31:58.341Z,8.55
2023-09-13T19:34:25.772Z,8.38
2023-09-13T19:36:52.962Z,10.55
2023-09-13T19:39:20.157Z,7.18
2023-09-13T19:41:47.461Z,9.93
2023-09-13T19:44:14.616Z,7.53
2023-09-13T19:46:41.677Z,8.98
2023-09-13T19:49:08.994Z,10.15
2023-09-13T19:51:36.288Z,4.97
2023-09-13T19:54:03.773Z,8.30
2023-09-13T19:56:30.838Z,7.05
2023-09-13T19:58:58.039Z,7.63
2023-09-13T20:01:27.693Z,6.25
2023-09-13T20:03:55.638Z,8.48
2023-09-13T20:06:23.078Z,10.18
2023-09-13T20:08:50.183Z,6.53
2023-09-13T20:11:17.606Z,7.53
2023-09-13T20:13:44.950Z,6.40
2023-09-13T20:16:12.444Z,8.48
2023-09-13T20:18:39.544Z,8.27
2023-09-13T20:21:06.707Z,6.60
2023-09-13T20:23:34.009Z,9.48
2023-09-13T20:26:02.051Z,8.15
2023-09-13T20:28:31.302Z,9.93
2023-09-13T20:31:00.957Z,7.13
2023-09-13T20:33:32.464Z,8.30
2023-09-13T20:36:01.227Z,8.05
2023-09-13T20:38:29.446Z,7.63
2023-09-13T20:40:56.528Z,7.72
2023-09-13T20:43:24.054Z,9.20
2023-09-13T20:45:52.424Z,6.20
2023-09-13T20:48:19.570Z,7.68
2023-09-13T20:50:52.032Z,9.88
2023-09-13T20:53:19.226Z,8.57
2023-09-13T20:55:46.242Z,8.77
2023-09-13T20:58:13.344Z,7.13
2023-09-13T21:00:40.577Z,9.23
2023-09-13T21:03:07.794Z,8.02
2023-09-13T21:05:34.936Z,8.30
2023-09-13T21:08:02.114Z,9.02
2023-09-13T21:10:29.264Z,8.10
2023-09-13T21:12:56.377Z,6.82
2023-09-13T21:15:24.112Z,8.95
2023-09-13T21:17:51.288Z,9.35
2023-09-13T21:20:18.452Z,8.55
2023-09-13T21:22:45.527Z,6.32
2023-09-13T21:25:12.826Z,8.65
2023-09-13T21:27:39.900Z,11.18
2023-09-13T21:30:08.698Z,9.35
2023-09-13T21:32:36.081Z,7.20
2023-09-13T21:35:03.590Z,8.07
2023-09-13T21:37:34.921Z,7.93
2023-09-13T21:40:06.498Z,5.90
2023-09-13T21:42:33.720Z,8.40
2023-09-13T21:45:00.978Z,6.07
2023-09-13T21:47:28.143Z,9.15
2023-09-13T21:49:56.395Z,6.60
2023-09-13T21:52:23.497Z,5.93
2023-09-13T21:54:51.319Z,6.70
2023-09-13T21:57:20.322Z,5.85
2023-09-13T21:59:47.495Z,7.03
2023-09-13T22:02:14.714Z,7.28
2023-09-13T22:04:41.815Z,8.00
2023-09-13T22:07:09.531Z,6.55
2023-09-13T22:09:37.326Z,7.43
2023-09-13T22:12:05.805Z,6.95
2023-09-13T22:14:33.270Z,8.20
2023-09-13T22:17:00.420Z,7.70
2023-09-13T22:19:27.705Z,6.63
2023-09-13T22:21:56.080Z,6.75
2023-09-13T22:24:27.904Z,6.70
2023-09-13T22:26:55.085Z,7.65
2023-09-13T22:29:22.273Z,6.60
2023-09-13T22:31:51.612Z,6.57
2023-09-13T22:34:18.874Z,9.80
2023-09-13T22:36:46.048Z,6.70
2023-09-13T22:39:13.261Z,8.63
2023-09-13T22:41:41.785Z,5.88
2023-09-13T22:44:09.258Z,7.60
2023-09-13T22:46:38.530Z,6.13
2023-09-13T22:49:05.868Z,6.65
2023-09-13T22:51:33.222Z,7.13
2023-09-13T22:54:00.514Z,6.50
2023-09-13T22:56:27.774Z,7.50
2023-09-13T22:58:56.427Z,7.65
2023-09-13T23:01:23.562Z,7.72
2023-09-13T23:03:50.785Z,6.57
2023-09-13T23:06:19.843Z,6.03
2023-09-13T23:08:47.374Z,6.28
2023-09-13T23:11:15.253Z,5.93
2023-09-13T23:13:44.627Z,6.90
2023-09-13T23:16:11.916Z,6.07
2023-09-13T23:18:39.183Z,6.13
2023-09-13T23:21:07.172Z,6.05
2023-09-13T23:23:34.592Z,6.95
2023-09-13T23:26:08.290Z,7.45
2023-09-13T23:28:36.348Z,5.32
2023-09-13T23:31:08.335Z,5.80
2023-09-13T23:33:40.851Z,6.72
2023-09-13T23:36:10.124Z,9.00
2023-09-13T23:38:43.509Z,7.07
2023-09-13T23:41:14.325Z,6.70
2023-09-13T23:43:43.530Z,6.15
2023-09-13T23:46:11.868Z,6.28
2023-09-13T23:48:42.428Z,6.13
2023-09-13T23:51:12.315Z,6.32
2023-09-13T23:53:41.449Z,7.10
2023-09-13T23:56:08.807Z,6.60
2023-09-13T23:58:35.919Z,6.30
